Time;durP1;ratioP1;P1;durP2;ratioP2;P2;SDS_P1;SDS_P2;PMS_P1;PMS_P2;Temp;Humidity;BMP_temperature;BMP_pressure;BME280_temperature;BME280_humidity;BME280_pressure;Samples;Min_cycle;Max_cycle;Signal;HPM_P1;HPM_P2
2022/09/29 00:03:08;;;;;;;7.20;4.47;;;;;;;2.58;100.00;95147.09;10453213;28;20204;-52
2022/09/29 00:08:08;;;;;;;6.10;4.03;;;;;;;2.46;100.00;95144.69;10454345;28;20241;-54
2022/09/29 00:13:09;;;;;;;7.17;4.33;;;;;;;2.40;100.00;95153.03;10453067;28;20242;-53
2022/09/29 00:18:10;;;;;;;7.67;5.23;;;;;;;2.40;100.00;95153.03;10452522;28;20299;-53
2022/09/29 00:23:10;;;;;;;7.60;5.33;;;;;;;2.46;100.00;95160.19;10453462;28;20223;-52
2022/09/29 00:28:10;;;;;;;7.30;5.17;;;;;;;2.50;100.00;95166.72;10452048;28;20190;-53
2022/09/29 00:33:11;;;;;;;11.70;5.20;;;;;;;2.50;100.00;95177.06;10451114;28;20855;-52
2022/09/29 00:38:11;;;;;;;7.60;4.80;;;;;;;2.56;100.00;95170.50;10452633;28;20650;-51
2022/09/29 00:43:22;;;;;;;7.50;5.20;;;;;;;2.66;100.00;95173.84;10452859;28;20570;-54
2022/09/29 00:48:29;;;;;;;8.90;5.47;;;;;;;2.64;100.00;95178.31;10452052;28;20195;-57
2022/09/29 00:53:30;;;;;;;6.53;4.20;;;;;;;2.51;100.00;95162.34;10451266;28;20220;-55
2022/09/29 00:58:38;;;;;;;6.67;4.90;;;;;;;2.54;100.00;95169.81;10451178;28;20644;-57
2022/09/29 01:03:41;;;;;;;7.27;4.43;;;;;;;2.54;100.00;95161.25;10452022;28;20219;-57
2022/09/29 01:08:56;;;;;;;6.57;5.00;;;;;;;2.58;100.00;95157.44;10452291;28;20177;-52
2022/09/29 01:14:02;;;;;;;7.07;4.80;;;;;;;2.64;100.00;95152.47;10450829;28;20241;-58
2022/09/29 01:19:07;;;;;;;6.03;4.70;;;;;;;2.70;100.00;95166.59;10450158;28;20222;-58
2022/09/29 01:24:35;;;;;;;9.87;5.70;;;;;;;2.77;100.00;95159.88;10449249;28;20629;-57
2022/09/29 01:29:38;;;;;;;24.97;13.23;;;;;;;2.81;100.00;95161.19;10455076;28;20196;-59
2022/09/29 01:35:06;;;;;;;27.83;17.83;;;;;;;2.75;100.00;95164.38;10459792;28;20216;-56
2022/09/29 01:40:14;;;;;;;12.67;7.13;;;;;;;2.88;100.00;95169.22;10458624;28;20195;-57
2022/09/29 01:45:26;;;;;;;13.43;5.80;;;;;;;2.90;100.00;95172.44;10457727;28;20273;-56
2022/09/29 01:50:31;;;;;;;9.80;5.40;;;;;;;2.81;100.00;95160.41;10457709;28;20689;-57
2022/09/29 01:55:34;;;;;;;8.70;6.77;;;;;;;2.85;100.00;95157.38;10457261;28;20231;-58
2022/09/29 02:00:44;;;;;;;6.53;4.73;;;;;;;2.81;100.00;95163.00;10457203;28;20184;-53
2022/09/29 02:05:49;;;;;;;5.60;4.63;;;;;;;2.74;100.00;95155.00;10459008;28;20204;-57
2022/09/29 02:10:54;;;;;;;8.97;5.13;;;;;;;2.74;100.00;95157.59;10457605;28;20196;-58
2022/09/29 02:15:56;;;;;;;8.33;5.50;;;;;;;2.61;100.00;95168.28;10456213;28;20314;-52
2022/09/29 02:20:56;;;;;;;9.00;5.60;;;;;;;2.60;100.00;95166.63;10458306;28;20192;-58
2022/09/29 02:25:57;;;;;;;7.87;5.80;;;;;;;2.63;100.00;95170.72;10457575;28;20254;-56
2022/09/29 02:30:59;;;;;;;8.83;5.53;;;;;;;2.70;100.00;95176.94;10455445;28;20317;-55
2022/09/29 02:36:14;;;;;;;9.43;6.00;;;;;;;2.62;100.00;95180.25;10457084;28;20219;-58
2022/09/29 02:41:49;;;;;;;8.23;5.47;;;;;;;2.54;100.00;95187.91;10456491;28;20192;-57
2022/09/29 02:47:00;;;;;;;6.13;4.30;;;;;;;2.48;100.00;95183.31;10451822;28;20207;-58
2022/09/29 02:52:17;;;;;;;9.40;5.57;;;;;;;2.55;100.00;95173.22;10457036;28;20196;-56
2022/09/29 02:57:31;;;;;;;7.70;5.43;;;;;;;2.59;100.00;95175.38;10455928;28;20215;-59
2022/09/29 03:02:31;;;;;;;8.30;5.33;;;;;;;2.64;100.00;95180.91;10454237;28;20212;-58
2022/09/29 03:07:32;;;;;;;8.33;5.23;;;;;;;2.64;100.00;95177.53;10455904;28;20196;-58
2022/09/29 03:12:33;;;;;;;8.27;5.47;;;;;;;2.64;100.00;95173.16;10454967;28;20239;-58
2022/09/29 03:17:34;;;;;;;9.47;5.30;;;;;;;2.73;100.00;95187.00;10455371;28;20299;-55
2022/09/29 03:22:34;;;;;;;9.37;4.73;;;;;;;2.79;100.00;95181.22;10455957;28;20242;-58
2022/09/29 03:27:37;;;;;;;5.13;4.00;;;;;;;2.80;100.00;95171.69;10455757;28;20658;-58
2022/09/29 03:32:37;;;;;;;8.63;5.70;;;;;;;2.70;100.00;95178.72;10453992;28;20859;-58
2022/09/29 03:37:37;;;;;;;6.70;4.97;;;;;;;2.87;100.00;95184.88;10454879;28;20220;-58
2022/09/29 03:42:38;;;;;;;8.03;4.87;;;;;;;2.84;100.00;95180.78;10454147;28;20226;-58
2022/09/29 03:47:38;;;;;;;7.90;5.40;;;;;;;2.87;100.00;95184.88;10455024;28;20192;-58
2022/09/29 03:52:38;;;;;;;6.47;4.80;;;;;;;2.90;100.00;95180.22;10454598;28;20693;-58
2022/09/29 03:57:39;;;;;;;7.73;5.47;;;;;;;2.90;100.00;95182.78;10452872;28;20593;-54
2022/09/29 04:02:39;;;;;;;7.77;4.43;;;;;;;2.97;100.00;95177.84;10451877;28;20212;-58
2022/09/29 04:07:39;;;;;;;8.70;5.47;;;;;;;3.09;100.00;95181.03;10453296;28;20188;-58
2022/09/29 04:12:40;;;;;;;7.40;4.87;;;;;;;3.11;100.00;95177.34;10453623;28;20243;-57
2022/09/29 04:17:40;;;;;;;9.07;5.53;;;;;;;3.14;100.00;95186.56;10453782;28;20321;-57
2022/09/29 04:22:41;;;;;;;7.50;5.27;;;;;;;3.24;100.00;95183.91;10452027;28;20702;-58
2022/09/29 04:27:41;;;;;;;6.03;4.77;;;;;;;3.21;100.00;95178.06;10453194;28;20215;-57
2022/09/29 04:32:42;;;;;;;9.17;5.93;;;;;;;3.38;100.00;95189.38;10451356;28;20207;-58
2022/09/29 04:37:42;;;;;;;8.20;5.43;;;;;;;3.52;100.00;95185.44;10452345;28;20276;-58
2022/09/29 04:42:42;;;;;;;7.20;4.73;;;;;;;3.57;100.00;95183.19;10452107;28;20435;-58
2022/09/29 04:47:43;;;;;;;9.00;5.30;;;;;;;3.62;100.00;95181.94;10451276;28;20202;-58
2022/09/29 04:52:43;;;;;;;8.73;5.23;;;;;;;3.66;100.00;95185.84;10452549;28;20575;-58
2022/09/29 04:57:45;;;;;;;6.33;5.17;;;;;;;3.72;100.00;95180.03;10452850;28;20219;-57
2022/09/29 05:02:45;;;;;;;6.80;4.93;;;;;;;3.77;100.00;95182.19;10452073;28;20702;-55
2022/09/29 05:07:47;;;;;;;8.37;3.93;;;;;;;3.78;100.00;95182.03;10452150;28;20187;-56
2022/09/29 05:12:48;;;;;;;6.90;4.60;;;;;;;3.80;100.00;95187.88;10452196;28;20243;-58
2022/09/29 05:17:49;;;;;;;7.00;4.77;;;;;;;3.86;100.00;95189.88;10451994;28;20215;-56
2022/09/29 05:22:49;;;;;;;7.23;5.13;;;;;;;3.91;100.00;95192.78;10450343;28;20212;-57
2022/09/29 05:27:50;;;;;;;6.77;5.13;;;;;;;3.98;100.00;95195.59;10447792;28;20188;-57
2022/09/29 05:32:51;;;;;;;6.47;4.60;;;;;;;4.06;100.00;95194.84;10451104;28;20706;-54
2022/09/29 05:37:51;;;;;;;6.90;4.80;;;;;;;4.11;100.00;95182.22;10451818;28;20224;-55
2022/09/29 05:42:52;;;;;;;6.10;5.00;;;;;;;4.21;100.00;95189.88;10451016;28;20207;-51
2022/09/29 05:47:53;;;;;;;9.23;5.23;;;;;;;4.33;100.00;95180.06;10451893;28;20317;-54
2022/09/29 05:52:53;;;;;;;12.40;9.83;;;;;;;4.45;100.00;95181.41;10451267;28;20223;-58
2022/09/29 05:57:54;;;;;;;7.57;6.17;;;;;;;4.59;100.00;95185.97;10451201;28;20218;-57
2022/09/29 06:02:57;;;;;;;7.07;5.27;;;;;;;4.78;100.00;95192.69;10451461;28;20744;-54
2022/09/29 06:07:57;;;;;;;10.60;7.07;;;;;;;4.91;100.00;95183.63;10450966;28;20216;-55
2022/09/29 06:12:57;;;;;;;11.40;9.00;;;;;;;4.89;100.00;95189.00;10450267;28;20319;-55
2022/09/29 06:17:59;;;;;;;7.93;5.87;;;;;;;5.01;100.00;95184.31;10456582;28;20239;-57
2022/09/29 06:23:00;;;;;;;9.63;7.97;;;;;;;5.15;100.00;95190.66;10453498;28;20215;-57
2022/09/29 06:28:00;;;;;;;7.10;5.87;;;;;;;5.24;100.00;95188.88;10456302;28;20750;-52
2022/09/29 06:33:01;;;;;;;6.50;4.60;;;;;;;5.46;100.00;95198.63;10455658;28;20675;-52
2022/09/29 06:38:01;;;;;;;5.30;4.70;;;;;;;6.27;100.00;95196.09;10454779;28;20217;-57
2022/09/29 06:43:02;;;;;;;4.97;4.03;;;;;;;6.87;100.00;95183.50;10453640;28;20204;-53
2022/09/29 06:48:02;;;;;;;4.67;4.13;;;;;;;7.50;100.00;95176.38;10456020;28;20192;-52
2022/09/29 06:53:02;;;;;;;3.87;3.50;;;;;;;8.84;100.00;95158.19;10452638;28;20219;-59
2022/09/29 06:58:03;;;;;;;4.97;3.43;;;;;;;8.72;100.00;95144.81;10455427;28;20702;-58
2022/09/29 07:03:03;;;;;;;7.47;3.40;;;;;;;8.96;100.00;95145.47;10455547;28;20751;-60
2022/09/29 07:08:04;;;;;;;4.30;3.67;;;;;;;9.31;100.00;95145.63;10453448;28;20233;-60
2022/09/29 07:13:04;;;;;;;5.43;3.23;;;;;;;9.54;100.00;95127.13;10453740;28;20702;-59
2022/09/29 07:18:05;;;;;;;5.30;4.73;;;;;;;8.72;100.00;95151.84;10453448;28;20208;-59
2022/09/29 07:23:07;;;;;;;5.20;4.70;;;;;;;9.10;100.00;95159.50;10450719;28;20219;-60
2022/09/29 07:28:08;;;;;;;8.40;5.47;;;;;;;8.40;100.00;95154.63;10451541;28;20195;-60
2022/09/29 07:33:08;;;;;;;6.73;5.87;;;;;;;8.50;100.00;95150.97;10453747;28;20207;-52
2022/09/29 07:38:09;;;;;;;6.40;5.27;;;;;;;8.81;100.00;95163.00;10453775;28;20270;-51
2022/09/29 07:43:09;;;;;;;4.13;3.70;;;;;;;9.37;100.00;95157.13;10453524;28;20215;-63
2022/09/29 07:48:09;;;;;;;4.57;3.70;;;;;;;9.37;100.00;95160.56;10453057;28;20552;-57
2022/09/29 07:53:10;;;;;;;4.43;3.80;;;;;;;9.03;100.00;95176.88;10452001;28;20215;-58
2022/09/29 07:58:11;;;;;;;4.27;3.87;;;;;;;9.45;100.00;95176.09;10453658;28;20730;-57
2022/09/29 08:03:12;;;;;;;3.27;2.97;;;;;;;9.73;100.00;95183.16;10452881;28;20212;-56
2022/09/29 08:08:12;;;;;;;3.60;3.20;;;;;;;9.77;100.00;95162.66;10451806;28;20188;-61
2022/09/29 08:13:13;;;;;;;5.77;3.27;;;;;;;9.91;100.00;95169.63;10452601;28;20239;-59
2022/09/29 08:18:13;;;;;;;3.33;2.03;;;;;;;11.02;95.64;95134.72;10452052;28;20232;-57
2022/09/29 08:23:13;;;;;;;3.90;2.37;;;;;;;10.66;95.34;95140.28;10452020;28;20207;-56
2022/09/29 08:28:14;;;;;;;2.25;2.05;;;;;;;11.63;91.63;95127.75;10450525;28;20191;-56
2022/09/29 08:33:15;;;;;;;3.70;2.70;;;;;;;10.31;94.83;95176.94;10452154;28;20289;-57
2022/09/29 08:38:15;;;;;;;2.75;2.22;;;;;;;12.17;84.70;95093.56;10450814;28;20223;-54
2022/09/29 08:43:31;;;;;;;3.33;2.38;;;;;;;11.60;88.76;95155.16;10451771;28;20212;-59
2022/09/29 08:48:35;;;;;;;2.90;2.30;;;;;;;11.77;87.13;95139.03;10450922;28;20199;-58
2022/09/29 08:53:38;;;;;;;3.13;2.55;;;;;;;11.17;84.69;95139.00;10449852;28;20231;-59
2022/09/29 08:58:38;;;;;;;2.55;2.33;;;;;;;10.45;89.04;95186.50;10448699;28;20742;-59
2022/09/29 09:03:44;;;;;;;3.97;2.38;;;;;;;11.45;86.57;95169.50;10450436;28;20238;-60
2022/09/29 09:09:08;;;;;;;3.63;2.58;;;;;;;10.85;87.81;95170.16;10450832;28;20211;-59
2022/09/29 09:14:26;;;;;;;6.22;3.08;;;;;;;13.69;80.56;95117.44;10451004;28;20232;-61
2022/09/29 09:19:54;;;;;;;4.47;2.55;;;;;;;14.72;71.87;95051.13;10449910;28;20222;-62
2022/09/29 09:24:57;;;;;;;2.25;1.83;;;;;;;14.90;71.10;95058.16;10449383;28;20227;-61
2022/09/29 09:30:04;;;;;;;2.25;1.95;;;;;;;16.39;68.00;95066.88;10445522;28;20196;-62
2022/09/29 09:35:29;;;;;;;4.18;1.98;;;;;;;15.46;65.95;95033.16;10449793;28;20219;-62
2022/09/29 09:40:38;;;;;;;2.70;2.08;;;;;;;14.86;67.72;95063.09;10449050;28;20192;-61
2022/09/29 09:45:47;;;;;;;2.35;1.77;;;;;;;14.06;68.38;95066.69;10429246;22;20252;-62
2022/09/29 09:50:48;;;;;;;1.85;1.50;;;;;;;15.51;62.04;94977.06;10412000;28;20196;-61
2022/09/29 09:56:00;;;;;;;3.70;1.40;;;;;;;13.33;67.12;95045.28;10416985;28;20745;-59
2022/09/29 10:01:03;;;;;;;3.03;1.88;;;;;;;13.88;71.14;95117.47;10415517;28;20276;-60
2022/09/29 10:06:05;;;;;;;3.22;2.20;;;;;;;13.51;71.22;95133.16;10415589;28;20185;-63
2022/09/29 10:11:22;;;;;;;2.90;1.80;;;;;;;13.82;68.94;95108.59;10416455;28;20210;-60
2022/09/29 10:16:33;;;;;;;2.45;2.25;;;;;;;12.97;72.45;95153.69;10415558;28;20426;-61
2022/09/29 10:21:41;;;;;;;2.50;1.83;;;;;;;12.64;75.54;95180.91;10416538;28;20278;-62
2022/09/29 10:26:43;;;;;;;2.25;2.00;;;;;;;12.00;76.63;95178.00;10420795;28;20193;-59
2022/09/29 10:31:57;;;;;;;3.28;2.10;;;;;;;12.64;74.66;95168.56;10418135;28;20216;-60
2022/09/29 10:37:01;;;;;;;2.92;2.10;;;;;;;12.32;74.98;95163.19;10412933;28;20225;-60
2022/09/29 10:42:03;;;;;;;2.10;1.90;;;;;;;12.31;75.26;95163.41;10422740;28;20228;-60
2022/09/29 10:47:06;;;;;;;3.63;1.40;;;;;;;13.47;74.63;95177.50;10456413;28;20196;-62
2022/09/29 10:52:23;;;;;;;1.38;1.27;;;;;;;13.48;69.21;95102.03;10455642;28;20211;-61
2022/09/29 10:57:26;;;;;;;11.52;6.15;;;;;;;13.89;68.62;95096.19;10437639;28;20317;-61
2022/09/29 11:02:34;;;;;;;5.68;1.80;;;;;;;14.23;70.38;95148.56;10437288;28;20212;-63
2022/09/29 11:07:42;;;;;;;3.30;1.67;;;;;;;13.79;71.52;95159.06;10436547;28;20931;-63
2022/09/29 11:12:44;;;;;;;4.57;1.30;;;;;;;13.69;69.62;95135.84;10437234;28;20672;-61
2022/09/29 11:17:48;;;;;;;2.63;1.20;;;;;;;13.81;70.96;95164.09;10454763;28;20216;-63
2022/09/29 11:23:04;;;;;;;2.13;1.40;;;;;;;13.67;68.80;95130.00;10454973;28;20200;-60
2022/09/29 11:28:08;;;;;;;3.03;1.27;;;;;;;13.30;70.89;95169.28;10455072;28;20189;-60
2022/09/29 11:33:48;;;;;;;2.45;1.40;;;;;;;13.69;70.30;95166.63;10454523;28;20216;-63
2022/09/29 11:39:10;;;;;;;2.90;1.63;;;;;;;14.08;70.69;95180.47;10452943;28;20559;-62
2022/09/29 11:44:24;;;;;;;2.45;1.20;;;;;;;13.87;67.49;95121.94;10435866;28;20235;-61
2022/09/29 11:50:02;;;;;;;2.72;1.20;;;;;;;13.55;68.11;95135.16;10435677;28;20267;-60
2022/09/29 11:55:15;;;;;;;2.47;1.45;;;;;;;13.32;69.94;95163.81;10453717;28;20215;-62
2022/09/29 12:00:19;;;;;;;4.40;1.45;;;;;;;13.03;69.61;95172.06;10435540;28;20543;-62
2022/09/29 12:05:26;;;;;;;2.17;1.33;;;;;;;13.44;69.33;95161.34;10435294;28;20303;-62
2022/09/29 12:10:45;;;;;;;1.60;1.30;;;;;;;13.61;68.84;95151.09;10451750;28;20203;-63
2022/09/29 12:15:56;;;;;;;1.20;1.10;;;;;;;13.60;68.73;95160.00;10434035;28;20275;-61
2022/09/29 12:20:56;;;;;;;3.13;1.48;;;;;;;14.16;67.95;95153.88;10434481;28;20192;-62
2022/09/29 12:26:03;;;;;;;3.40;1.30;;;;;;;15.21;66.74;95159.22;10434938;28;20262;-61
2022/09/29 12:31:09;;;;;;;6.10;1.50;;;;;;;16.76;60.06;95069.97;10434515;28;20204;-62
2022/09/29 12:36:42;;;;;;;3.80;1.55;;;;;;;16.37;60.46;95075.06;10451865;28;20215;-59
2022/09/29 12:41:52;;;;;;;2.63;1.30;;;;;;;18.64;55.39;95031.75;10450784;28;20238;-63
2022/09/29 12:46:59;;;;;;;2.78;1.73;;;;;;;16.97;57.96;95059.81;10434469;28;20199;-61
2022/09/29 12:52:01;;;;;;;1.45;1.33;;;;;;;15.30;62.40;95113.81;10433478;28;20212;-55
2022/09/29 12:57:25;;;;;;;3.60;1.50;;;;;;;15.75;62.60;95124.91;10451339;28;20250;-59
2022/09/29 13:02:47;;;;;;;5.32;1.65;;;;;;;13.98;65.49;95144.13;10450809;28;20595;-60
2022/09/29 13:08:20;;;;;;;2.33;1.67;;;;;;;14.97;63.88;95128.25;10451305;28;20188;-60
2022/09/29 13:13:20;;;;;;;3.40;1.40;;;;;;;15.18;62.87;95117.44;10417379;28;20253;-61
2022/09/29 13:18:55;;;;;;;2.58;1.40;;;;;;;14.83;63.55;95134.72;10433092;28;20212;-60
2022/09/29 13:24:09;;;;;;;3.17;1.60;;;;;;;14.21;65.99;95167.19;10452570;28;20208;-61
2022/09/29 13:29:16;;;;;;;1.70;1.60;;;;;;;14.35;65.24;95159.97;10441421;28;20188;-61
2022/09/29 13:34:32;;;;;;;5.55;2.22;;;;;;;14.49;65.17;95158.00;10441598;28;20207;-61
2022/09/29 13:39:34;;;;;;;2.78;2.00;;;;;;;15.01;64.41;95159.44;10459316;28;20223;-62
2022/09/29 13:44:34;;;;;;;2.00;1.60;;;;;;;15.39;63.92;95158.31;10458408;28;20293;-62
2022/09/29 13:49:34;;;;;;;3.40;1.70;;;;;;;15.24;67.52;95214.16;10457741;28;20246;-62
2022/09/29 13:54:39;;;;;;;3.30;1.80;;;;;;;14.20;69.60;95230.63;10457902;28;20263;-62
2022/09/29 13:59:41;;;;;;;4.13;1.52;;;;;;;14.56;69.16;95221.16;10458318;28;20312;-61
2022/09/29 14:04:43;;;;;;;2.15;1.40;;;;;;;14.89;64.00;95131.19;10458007;28;20208;-63
2022/09/29 14:09:46;;;;;;;3.65;1.95;;;;;;;14.86;69.13;95221.28;10457967;28;20180;-61
2022/09/29 14:14:54;;;;;;;5.82;2.17;;;;;;;14.63;67.50;95187.69;10457695;28;20295;-60
2022/09/29 14:20:20;;;;;;;4.53;2.08;;;;;;;14.66;67.78;95202.25;10456402;28;20302;-59
2022/09/29 14:25:39;;;;;;;3.88;2.40;;;;;;;14.36;68.95;95232.69;10456927;28;20589;-62
2022/09/29 14:30:43;;;;;;;2.85;1.70;;;;;;;14.39;68.98;95231.47;10456908;28;20542;-61
2022/09/29 14:36:01;;;;;;;3.05;2.05;;;;;;;14.23;71.10;95267.88;10437817;28;20231;-62
2022/09/29 14:41:05;;;;;;;5.13;1.98;;;;;;;15.03;67.94;95228.63;10439450;28;20183;-61
2022/09/29 14:51:59;;;;;;;2.63;2.20;;;;;;;14.84;68.46;95239.16;10433903;28;20222;-63
2022/09/29 14:57:19;;;;;;;3.38;2.05;;;;;;;15.55;70.92;95291.50;10438353;28;20593;-63
2022/09/29 15:02:29;;;;;;;2.38;1.80;;;;;;;18.32;58.09;95113.84;10438192;28;20269;-61
2022/09/29 15:07:30;;;;;;;5.22;2.08;;;;;;;18.23;56.91;95113.44;10436647;28;20203;-61
2022/09/29 15:12:31;;;;;;;5.65;2.05;;;;;;;16.83;60.30;95162.44;10437999;28;20298;-61
2022/09/29 15:17:46;;;;;;;2.50;2.25;;;;;;;14.69;66.00;95225.53;10455272;28;20702;-61
2022/09/29 15:23:13;;;;;;;5.57;2.35;;;;;;;12.94;71.58;95288.97;10436493;28;20276;-59
2022/09/29 15:28:35;;;;;;;5.40;3.90;;;;;;;12.99;73.59;95328.59;10437308;28;20548;-58
2022/09/29 15:33:37;;;;;;;6.05;3.75;;;;;;;12.95;74.79;95343.16;10437410;28;20274;-61
2022/09/29 15:38:38;;;;;;;4.82;3.20;;;;;;;12.18;78.48;95383.97;10454344;28;20583;-63
2022/09/29 15:43:59;;;;;;;4.70;3.00;;;;;;;11.85;81.13;95398.63;10458026;22;20298;-61
2022/09/29 15:49:11;;;;;;;17.10;10.32;;;;;;;10.58;87.58;95445.00;10390648;28;20215;-61
2022/09/29 15:54:13;;;;;;;7.22;3.97;;;;;;;10.16;96.62;95426.44;10394410;28;20667;-62
2022/09/29 15:59:17;;;;;;;8.38;5.15;;;;;;;9.89;100.00;95435.00;10389069;28;20659;-60
2022/09/29 16:04:18;;;;;;;26.33;18.75;;;;;;;10.08;100.00;95447.50;10396449;28;20227;-62
2022/09/29 16:09:19;;;;;;;9.90;8.77;;;;;;;10.06;100.00;95462.59;10411022;28;20195;-62
2022/09/29 16:14:26;;;;;;;8.73;4.53;;;;;;;10.30;100.00;95464.03;10410874;28;20216;-60
2022/09/29 16:19:29;;;;;;;7.25;4.20;;;;;;;10.05;100.00;95468.81;10410216;28;20658;-59
2022/09/29 16:24:33;;;;;;;11.10;9.70;;;;;;;9.25;100.00;95486.06;10408689;28;20200;-59
2022/09/29 16:29:35;;;;;;;12.47;4.77;;;;;;;9.42;100.00;95487.50;10398051;28;20923;-60
2022/09/29 16:34:35;;;;;;;11.17;5.27;;;;;;;9.55;100.00;95489.50;10387210;28;20218;-57
2022/09/29 16:39:47;;;;;;;10.30;5.50;;;;;;;9.52;100.00;95494.28;10389746;28;20223;-59
2022/09/29 16:44:49;;;;;;;8.90;6.17;;;;;;;9.18;100.00;95491.19;10388066;28;20241;-61
2022/09/29 16:50:11;;;;;;;8.97;5.77;;;;;;;9.27;100.00;95497.16;10402734;28;20681;-58
2022/09/29 16:55:20;;;;;;;12.03;6.40;;;;;;;9.26;100.00;95513.81;10409541;28;20710;-58
2022/09/29 17:00:21;;;;;;;10.87;6.20;;;;;;;9.43;100.00;95523.13;10406087;28;20727;-58
2022/09/29 17:05:25;;;;;;;15.43;6.87;;;;;;;9.41;100.00;95534.75;10394621;28;20205;-61
2022/09/29 17:10:26;;;;;;;11.80;6.70;;;;;;;9.33;100.00;95537.44;10382098;28;20205;-61
2022/09/29 17:15:26;;;;;;;11.97;7.07;;;;;;;9.24;100.00;95555.00;10370760;28;20630;-59
2022/09/29 17:20:30;;;;;;;10.13;7.50;;;;;;;9.02;100.00;95548.78;10370758;28;20251;-58
2022/09/29 17:25:31;;;;;;;12.80;7.00;;;;;;;8.69;100.00;95546.44;10359694;28;20225;-59
2022/09/29 17:30:32;;;;;;;11.33;8.33;;;;;;;8.46;100.00;95557.66;10381470;28;20208;-62
2022/09/29 17:35:36;;;;;;;9.33;7.30;;;;;;;8.58;100.00;95560.69;10405573;28;20260;-58
2022/09/29 17:41:05;;;;;;;12.67;6.87;;;;;;;8.44;100.00;95572.69;10403126;28;20188;-62
2022/09/29 17:46:07;;;;;;;17.40;8.20;;;;;;;8.16;100.00;95570.50;10404686;28;20298;-61
2022/09/29 17:51:11;;;;;;;12.70;8.87;;;;;;;8.45;100.00;95570.88;10401942;28;20201;-60
2022/09/29 17:56:20;;;;;;;13.97;8.17;;;;;;;8.01;100.00;95569.59;10402526;28;20220;-59
2022/09/29 18:01:22;;;;;;;10.20;6.63;;;;;;;7.84;100.00;95572.25;10409670;28;20198;-58
2022/09/29 18:06:25;;;;;;;7.10;5.33;;;;;;;7.95;100.00;95570.25;10409239;28;20205;-58
2022/09/29 18:11:25;;;;;;;14.07;7.43;;;;;;;7.73;100.00;95580.41;10412847;28;20204;-60
2022/09/29 18:16:26;;;;;;;11.13;7.67;;;;;;;7.38;100.00;95595.47;10416901;28;20228;-58
2022/09/29 18:21:28;;;;;;;10.90;7.83;;;;;;;7.22;100.00;95590.25;10416750;28;20311;-59
2022/09/29 18:26:28;;;;;;;12.00;7.43;;;;;;;7.01;100.00;95588.94;10416099;28;20244;-54
2022/09/29 18:31:30;;;;;;;12.60;8.63;;;;;;;7.01;100.00;95591.53;10416190;28;20532;-60
2022/09/29 18:36:30;;;;;;;15.60;8.23;;;;;;;6.87;100.00;95584.38;10415110;28;20248;-57
2022/09/29 18:41:30;;;;;;;13.33;8.90;;;;;;;6.71;100.00;95588.59;10416131;28;20220;-59
2022/09/29 18:46:32;;;;;;;14.13;9.73;;;;;;;6.61;100.00;95598.31;10398280;28;20637;-60
2022/09/29 18:51:33;;;;;;;22.30;10.97;;;;;;;6.48;100.00;95590.97;10394784;28;20189;-58
2022/09/29 18:56:34;;;;;;;15.20;9.47;;;;;;;6.32;100.00;95594.34;10391569;28;20224;-57
2022/09/29 19:01:34;;;;;;;16.90;9.60;;;;;;;6.17;100.00;95607.16;10392953;28;20203;-59
2022/09/29 19:06:35;;;;;;;17.00;9.10;;;;;;;6.14;100.00;95609.22;10391994;28;20204;-59
2022/09/29 19:11:35;;;;;;;16.80;8.27;;;;;;;6.15;100.00;95623.88;10378788;28;20205;-57
2022/09/29 19:16:35;;;;;;;16.60;8.23;;;;;;;6.07;100.00;95614.25;10373771;28;20308;-54
2022/09/29 19:21:36;;;;;;;14.10;8.07;;;;;;;6.06;100.00;95625.59;10378338;28;20185;-58
2022/09/29 19:26:37;;;;;;;15.53;9.27;;;;;;;5.96;100.00;95617.91;10391334;28;20216;-58
2022/09/29 19:31:37;;;;;;;15.33;9.60;;;;;;;5.88;100.00;95633.44;10391292;28;20576;-57
2022/09/29 19:36:38;;;;;;;18.47;9.87;;;;;;;5.78;100.00;95630.94;10378432;28;20225;-56
2022/09/29 19:41:38;;;;;;;16.23;9.73;;;;;;;5.72;100.00;95636.75;10373235;28;20194;-58
2022/09/29 19:46:38;;;;;;;13.70;8.83;;;;;;;5.63;100.00;95645.47;10372297;28;20667;-56
2022/09/29 19:51:48;;;;;;;13.33;9.37;;;;;;;5.52;100.00;95657.72;10373088;28;20239;-55
2022/09/29 19:56:52;;;;;;;19.00;8.43;;;;;;;5.49;100.00;95652.03;10387621;28;20225;-56
2022/09/29 20:01:54;;;;;;;15.73;9.10;;;;;;;5.50;100.00;95645.88;10390076;28;20575;-58
2022/09/29 20:06:54;;;;;;;13.73;8.83;;;;;;;5.45;100.00;95653.28;10406513;28;20212;-54
2022/09/29 20:11:55;;;;;;;12.67;8.63;;;;;;;5.39;100.00;95659.09;10411976;28;20757;-58
2022/09/29 20:16:56;;;;;;;17.47;8.87;;;;;;;5.23;100.00;95657.19;10412248;28;20224;-55
2022/09/29 20:21:56;;;;;;;17.30;9.40;;;;;;;5.14;100.00;95666.66;10412268;28;20224;-57
2022/09/29 20:26:57;;;;;;;14.83;8.63;;;;;;;5.07;100.00;95676.84;10410803;28;20219;-54
2022/09/29 20:31:57;;;;;;;14.20;8.53;;;;;;;4.89;100.00;95678.63;10411781;28;20196;-58
2022/09/29 20:36:58;;;;;;;12.67;8.00;;;;;;;4.87;100.00;95683.94;10410914;28;20217;-55
2022/09/29 20:41:58;;;;;;;15.90;8.17;;;;;;;4.77;100.00;95696.16;10410423;28;20196;-52
2022/09/29 20:46:59;;;;;;;15.03;8.33;;;;;;;4.72;100.00;95698.38;10409768;28;20232;-54
2022/09/29 20:51:59;;;;;;;10.73;6.63;;;;;;;4.75;100.00;95709.28;10410669;28;20199;-56
2022/09/29 20:57:00;;;;;;;10.10;7.10;;;;;;;4.67;100.00;95716.13;10410678;28;20256;-59
2022/09/29 21:02:01;;;;;;;14.30;7.40;;;;;;;4.63;100.00;95718.22;10409479;28;20200;-58
2022/09/29 21:07:01;;;;;;;12.87;7.00;;;;;;;4.64;100.00;95725.03;10410830;28;20673;-55
2022/09/29 21:12:02;;;;;;;12.10;7.33;;;;;;;4.60;100.00;95728.88;10410585;28;20192;-54
2022/09/29 21:17:02;;;;;;;12.77;6.87;;;;;;;4.58;100.00;95728.19;10410117;28;20607;-55
2022/09/29 21:22:03;;;;;;;15.63;6.83;;;;;;;4.56;100.00;95740.50;10411148;28;20300;-55
2022/09/29 21:27:04;;;;;;;11.93;8.10;;;;;;;4.57;100.00;95745.53;10409600;28;20197;-59
2022/09/29 21:32:05;;;;;;;12.57;6.87;;;;;;;4.59;100.00;95742.78;10411012;28;20208;-54
2022/09/29 21:37:05;;;;;;;8.10;5.33;;;;;;;4.58;100.00;95744.59;10410453;28;20232;-55
2022/09/29 21:42:06;;;;;;;10.07;6.00;;;;;;;4.60;100.00;95737.47;10409735;28;20254;-57
2022/09/29 21:47:06;;;;;;;12.50;6.50;;;;;;;4.57;100.00;95731.75;10434473;22;20730;-60
2022/09/29 21:52:06;;;;;;;10.83;5.70;;;;;;;4.54;100.00;95727.66;10418619;28;20671;-60
2022/09/29 21:57:08;;;;;;;9.10;6.13;;;;;;;4.55;100.00;95733.66;10388902;28;20741;-59
2022/09/29 22:02:09;;;;;;;9.17;6.10;;;;;;;4.59;100.00;95738.41;10376715;28;20566;-57
2022/09/29 22:07:09;;;;;;;7.70;5.63;;;;;;;4.70;100.00;95740.03;10377209;28;20205;-58
2022/09/29 22:12:09;;;;;;;12.20;5.53;;;;;;;4.78;100.00;95740.13;10349065;28;20244;-60
2022/09/29 22:17:10;;;;;;;8.23;5.30;;;;;;;4.79;100.00;95743.53;10352862;28;20220;-60
2022/09/29 22:22:10;;;;;;;7.97;5.40;;;;;;;4.87;100.00;95748.81;10375256;28;20193;-62
2022/09/29 22:27:10;;;;;;;8.67;6.20;;;;;;;4.89;100.00;95752.06;10376344;28;20197;-60
2022/09/29 22:32:11;;;;;;;11.67;6.27;;;;;;;4.92;100.00;95754.38;10376488;28;20197;-61
2022/09/29 22:37:11;;;;;;;8.93;5.33;;;;;;;5.05;100.00;95754.03;10375170;28;20304;-59
2022/09/29 22:42:12;;;;;;;5.37;4.33;;;;;;;5.18;100.00;95754.50;10375506;28;20620;-62
2022/09/29 22:47:12;;;;;;;7.00;5.40;;;;;;;5.25;100.00;95751.31;10374552;28;20277;-62
2022/09/29 22:52:12;;;;;;;12.87;5.30;;;;;;;5.35;100.00;95745.09;10374689;28;20200;-61
2022/09/29 22:57:13;;;;;;;7.50;5.43;;;;;;;5.34;100.00;95750.44;10373693;28;20229;-58
2022/09/29 23:02:13;;;;;;;8.83;5.13;;;;;;;5.30;100.00;95754.31;10374134;28;20193;-60
2022/09/29 23:07:14;;;;;;;6.87;5.27;;;;;;;5.30;100.00;95760.31;10375101;28;20258;-59
2022/09/29 23:12:15;;;;;;;6.57;4.70;;;;;;;5.34;100.00;95755.63;10374185;28;20200;-59
2022/09/29 23:17:15;;;;;;;6.20;4.50;;;;;;;5.40;100.00;95764.63;10373180;28;20225;-60
2022/09/29 23:22:15;;;;;;;7.50;4.20;;;;;;;5.39;100.00;95758.63;10373559;28;20280;-57
2022/09/29 23:27:16;;;;;;;7.27;4.60;;;;;;;5.45;100.00;95771.00;10374027;28;20209;-59
2022/09/29 23:32:17;;;;;;;9.03;4.10;;;;;;;5.49;100.00;95766.31;10373850;28;20196;-59
2022/09/29 23:37:18;;;;;;;8.30;4.50;;;;;;;5.53;100.00;95763.28;10372530;28;20233;-62